createdAt,value
2017-12-04T00:01:49.777Z,30.73
2017-12-04T00:04:19.041Z,34.30
2017-12-04T00:06:48.315Z,39.67
2017-12-04T00:09:17.578Z,33.90
2017-12-04T00:11:46.839Z,34.33
2017-12-04T00:14:16.881Z,32.45
2017-12-04T00:16:46.185Z,33.95
2017-12-04T00:19:15.460Z,32.00
2017-12-04T00:21:45.485Z,33.53
2017-12-04T00:24:14.732Z,39.15
2017-12-04T00:26:44.026Z,35.63
2017-12-04T00:29:13.279Z,31.65
2017-12-04T00:31:42.532Z,33.85
2017-12-04T00:34:11.779Z,32.53
2017-12-04T00:36:41.064Z,34.53
2017-12-04T00:39:11.113Z,37.50
2017-12-04T00:41:40.371Z,31.67
2017-12-04T00:44:09.615Z,31.33
2017-12-04T00:46:38.849Z,33.35
2017-12-04T00:49:08.113Z,40.38
2017-12-04T00:51:37.390Z,38.55
2017-12-04T00:54:06.646Z,37.13
2017-12-04T00:56:35.903Z,33.58
2017-12-04T00:59:05.187Z,34.42
2017-12-04T01:01:35.196Z,38.20
2017-12-04T01:04:05.213Z,38.30
2017-12-04T01:06:35.234Z,36.80
2017-12-04T01:09:05.257Z,35.08
2017-12-04T01:11:34.516Z,36.83
2017-12-04T01:14:03.785Z,34.42
2017-12-04T01:16:33.035Z,35.03
2017-12-04T01:19:03.058Z,42.35
2017-12-04T01:21:33.088Z,35.85
2017-12-04T01:24:02.387Z,39.90
2017-12-04T01:26:31.599Z,37.75
2017-12-04T01:29:00.862Z,37.15
2017-12-04T01:31:30.892Z,39.17
2017-12-04T01:34:00.160Z,38.50
2017-12-04T01:36:29.422Z,31.87
2017-12-04T01:38:58.694Z,34.80
2017-12-04T01:41:28.700Z,33.58
2017-12-04T01:43:58.763Z,29.80
2017-12-04T01:46:28.034Z,40.83
2017-12-04T01:48:57.297Z,33.33
2017-12-04T01:51:26.566Z,32.95
2017-12-04T01:53:55.831Z,36.65
2017-12-04T01:56:25.093Z,30.67
2017-12-04T01:58:54.342Z,32.55
2017-12-04T02:01:23.593Z,31.83
2017-12-04T02:03:52.864Z,37.55
2017-12-04T02:06:22.116Z,35.38
2017-12-04T02:08:52.156Z,37.60
2017-12-04T02:11:21.409Z,31.23
2017-12-04T02:13:50.664Z,33.65
2017-12-04T02:16:19.929Z,31.30
2017-12-04T02:18:49.189Z,35.72
2017-12-04T02:21:18.466Z,28.77
2017-12-04T02:23:47.731Z,32.90
2017-12-04T02:26:16.980Z,33.30
2017-12-04T02:28:46.270Z,33.67
2017-12-04T02:31:15.544Z,30.02
2017-12-04T02:33:44.795Z,30.15
2017-12-04T02:36:14.096Z,36.00
2017-12-04T02:38:43.345Z,32.90
2017-12-04T02:41:12.579Z,33.58
2017-12-04T02:43:41.840Z,33.05
2017-12-04T02:46:11.118Z,31.08
2017-12-04T02:48:41.163Z,39.38
2017-12-04T02:51:10.456Z,30.95
2017-12-04T02:53:39.712Z,30.73
2017-12-04T02:56:08.970Z,39.13
2017-12-04T02:58:38.248Z,32.13
2017-12-04T03:01:07.550Z,30.92
2017-12-04T03:03:36.781Z,30.50
2017-12-04T03:06:06.077Z,32.53
2017-12-04T03:08:35.323Z,31.25
2017-12-04T03:11:05.327Z,30.88
2017-12-04T03:13:34.570Z,30.92
2017-12-04T03:16:03.847Z,32.22
2017-12-04T03:18:34.737Z,33.17
2017-12-04T03:21:03.986Z,36.95
2017-12-04T03:23:33.242Z,41.72
2017-12-04T03:26:03.275Z,32.42
2017-12-04T03:28:32.573Z,30.35
2017-12-04T03:31:01.850Z,33.88
2017-12-04T03:33:31.108Z,35.63
2017-12-04T03:36:00.370Z,34.22
2017-12-04T03:38:29.617Z,29.58
2017-12-04T03:40:58.880Z,28.45
2017-12-04T03:43:28.903Z,32.60
2017-12-04T03:45:58.173Z,27.45
2017-12-04T03:48:27.410Z,29.90
2017-12-04T03:50:56.724Z,34.97
2017-12-04T03:53:25.966Z,26.45
2017-12-04T03:55:55.249Z,33.47
2017-12-04T03:58:24.497Z,34.22
2017-12-04T04:00:54.564Z,35.85
2017-12-04T04:03:23.826Z,31.77
2017-12-04T04:05:53.872Z,30.83
2017-12-04T04:08:23.132Z,32.20
2017-12-04T04:10:53.158Z,31.52
2017-12-04T04:13:23.197Z,33.90
2017-12-04T04:15:52.470Z,32.30
2017-12-04T04:18:22.512Z,33.42
2017-12-04T04:20:51.772Z,26.27
2017-12-04T04:23:21.027Z,29.87
2017-12-04T04:25:50.278Z,33.10
2017-12-04T04:28:20.295Z,29.40
2017-12-04T04:30:50.325Z,25.02
2017-12-04T04:33:19.604Z,16.85
2017-12-04T04:35:48.833Z,20.05
2017-12-04T04:38:18.145Z,21.42
2017-12-04T04:40:47.379Z,18.87
2017-12-04T04:43:16.650Z,19.45
2017-12-04T04:45:45.930Z,21.08
2017-12-04T04:48:15.180Z,16.27
2017-12-04T04:50:44.447Z,19.83
2017-12-04T04:53:13.712Z,17.50
2017-12-04T04:55:43.727Z,20.52
2017-12-04T04:58:13.780Z,16.83
2017-12-04T05:00:43.003Z,19.45
2017-12-04T05:03:12.265Z,16.73
2017-12-04T05:05:41.519Z,18.85
2017-12-04T05:08:10.765Z,16.17
2017-12-04T05:10:40.031Z,15.27
2017-12-04T05:13:09.295Z,16.58
2017-12-04T05:15:38.531Z,14.32
2017-12-04T05:18:08.547Z,23.62
2017-12-04T05:20:37.788Z,26.45
2017-12-04T05:23:07.067Z,47.70
2017-12-04T05:25:37.086Z,21.92
2017-12-04T05:28:06.350Z,25.37
2017-12-04T05:30:35.959Z,23.08
2017-12-04T05:33:05.186Z,25.25
2017-12-04T05:35:34.441Z,24.20
2017-12-04T05:38:03.714Z,18.33
2017-12-04T05:40:32.955Z,25.20
2017-12-04T05:43:02.211Z,19.08
2017-12-04T05:45:31.444Z,23.00
2017-12-04T05:48:00.726Z,18.73
2017-12-04T05:50:29.976Z,21.75
2017-12-04T05:52:59.230Z,18.12
2017-12-04T05:55:28.484Z,21.00
2017-12-04T05:57:57.750Z,20.67
2017-12-04T06:00:27.012Z,25.23
2017-12-04T06:02:56.266Z,20.10
2017-12-04T06:05:26.302Z,21.50
2017-12-04T06:07:55.581Z,19.42
2017-12-04T06:10:24.870Z,20.40
2017-12-04T06:12:54.910Z,21.52
2017-12-04T06:15:24.157Z,19.30
2017-12-04T06:17:53.423Z,19.40
2017-12-04T06:20:22.675Z,18.77
2017-12-04T06:22:51.936Z,16.23
2017-12-04T06:25:21.187Z,28.12
2017-12-04T06:27:51.221Z,18.33
2017-12-04T06:30:20.507Z,19.58
2017-12-04T06:32:50.530Z,23.02
2017-12-04T06:35:20.539Z,21.45
2017-12-04T06:37:50.559Z,18.17
2017-12-04T06:40:19.827Z,19.65
2017-12-04T06:42:49.085Z,16.62
2017-12-04T06:45:18.353Z,19.65
2017-12-04T06:47:49.064Z,16.95
2017-12-04T06:50:18.363Z,21.62
2017-12-04T06:52:47.617Z,17.85
2017-12-04T06:55:16.865Z,21.27
2017-12-04T06:57:46.151Z,29.65
2017-12-04T07:00:15.400Z,34.85
2017-12-04T07:02:44.667Z,22.55
2017-12-04T07:05:14.653Z,22.50
2017-12-04T07:07:43.916Z,20.95
2017-12-04T07:10:13.190Z,16.92
2017-12-04T07:12:43.224Z,17.15
2017-12-04T07:15:13.261Z,15.57
2017-12-04T07:17:42.512Z,15.27
2017-12-04T07:20:11.768Z,20.10
2017-12-04T07:22:41.042Z,14.95
2017-12-04T07:25:10.288Z,19.98
2017-12-04T07:27:39.534Z,18.12
2017-12-04T07:30:09.560Z,22.80
2017-12-04T07:32:39.422Z,16.37
2017-12-04T07:35:08.681Z,16.48
2017-12-04T07:37:38.115Z,22.65
2017-12-04T07:40:07.375Z,18.73
2017-12-04T07:42:36.638Z,25.33
2017-12-04T07:45:05.884Z,18.77
2017-12-04T07:47:35.173Z,24.25
2017-12-04T07:50:04.441Z,21.60
2017-12-04T07:52:33.713Z,20.33
2017-12-04T07:55:03.026Z,20.90
2017-12-04T07:57:32.289Z,18.77
2017-12-04T08:00:01.549Z,18.58
2017-12-04T08:02:31.568Z,24.08
2017-12-04T08:05:01.587Z,21.30
2017-12-04T08:07:31.627Z,20.05
2017-12-04T08:10:00.855Z,22.27
2017-12-04T08:12:30.111Z,19.55
2017-12-04T08:15:00.113Z,21.80
2017-12-04T08:17:30.145Z,19.20
2017-12-04T08:20:00.175Z,21.62
2017-12-04T08:22:29.427Z,22.98
2017-12-04T08:24:58.902Z,23.20
2017-12-04T08:27:28.186Z,22.05
2017-12-04T08:29:57.419Z,16.70
2017-12-04T08:32:26.677Z,10.63
2017-12-04T08:34:55.966Z,17.20
2017-12-04T08:37:25.384Z,17.48
2017-12-04T08:39:54.624Z,9.63
2017-12-04T08:42:23.888Z,13.35
2017-12-04T08:44:53.154Z,12.88
2017-12-04T08:47:23.184Z,14.02
2017-12-04T08:49:52.429Z,10.05
2017-12-04T08:52:21.664Z,17.12
2017-12-04T08:54:51.675Z,11.80
2017-12-04T08:57:21.712Z,15.52
2017-12-04T08:59:50.998Z,20.30
2017-12-04T09:02:21.015Z,15.50
2017-12-04T09:04:51.026Z,16.98
2017-12-04T09:07:21.088Z,19.98
2017-12-04T09:09:50.346Z,21.30
2017-12-04T09:12:20.425Z,23.42
2017-12-04T09:14:50.591Z,20.25
2017-12-04T09:17:20.632Z,23.35
2017-12-04T09:19:49.909Z,20.75
2017-12-04T09:22:19.921Z,19.30
2017-12-04T09:24:49.963Z,16.90
2017-12-04T09:27:19.208Z,39.80
2017-12-04T09:29:48.472Z,23.98
2017-12-04T09:32:17.738Z,36.72
2017-12-04T09:34:47.752Z,23.05
2017-12-04T09:37:17.801Z,22.77
2017-12-04T09:39:47.198Z,30.80
2017-12-04T09:42:16.484Z,23.10
2017-12-04T09:44:46.504Z,22.55
2017-12-04T09:47:15.846Z,18.98
2017-12-04T09:49:45.114Z,23.77
2017-12-04T09:52:14.356Z,17.50
2017-12-04T09:54:43.703Z,19.25
2017-12-04T09:57:13.027Z,18.75
2017-12-04T09:59:42.294Z,25.20
2017-12-04T10:02:12.322Z,30.42
2017-12-04T10:04:41.590Z,27.80
2017-12-04T10:07:10.849Z,24.87
2017-12-04T10:09:40.118Z,19.77
2017-12-04T10:12:09.416Z,25.55
2017-12-04T10:14:38.710Z,33.95
2017-12-04T10:17:08.741Z,35.45
2017-12-04T10:19:37.988Z,24.45
2017-12-04T10:22:07.344Z,24.27
2017-12-04T10:24:36.608Z,27.02
2017-12-04T10:27:05.883Z,25.23
2017-12-04T10:29:35.282Z,30.77
2017-12-04T10:32:04.555Z,27.98
2017-12-04T10:34:33.804Z,21.55
2017-12-04T10:37:03.844Z,25.35
2017-12-04T10:39:33.876Z,21.60
2017-12-04T10:42:03.177Z,28.02
2017-12-04T10:44:32.394Z,23.55
2017-12-04T10:47:01.656Z,11.45
2017-12-04T10:49:31.678Z,12.05
2017-12-04T10:52:00.992Z,8.98
2017-12-04T10:54:30.237Z,12.68
2017-12-04T10:56:59.500Z,15.00
2017-12-04T10:59:28.772Z,17.65
2017-12-04T11:01:58.782Z,13.05
2017-12-04T11:04:28.094Z,16.70
2017-12-04T11:06:57.432Z,16.40
2017-12-04T11:09:26.674Z,13.95
2017-12-04T11:11:55.945Z,14.60
2017-12-04T11:14:25.204Z,14.15
2017-12-04T11:16:54.466Z,24.17
2017-12-04T11:19:23.739Z,14.45
2017-12-04T11:21:53.017Z,14.93
2017-12-04T11:24:22.325Z,17.62
2017-12-04T11:26:51.598Z,16.77
2017-12-04T11:29:20.876Z,21.48
2017-12-04T11:31:50.944Z,30.08
2017-12-04T11:34:20.318Z,19.87
2017-12-04T11:36:49.567Z,23.83
2017-12-04T11:39:18.829Z,21.80
2017-12-04T11:41:48.125Z,22.92
2017-12-04T11:44:17.364Z,22.15
2017-12-04T11:46:46.763Z,19.08
2017-12-04T11:49:16.048Z,21.75
2017-12-04T11:51:45.825Z,20.77
2017-12-04T11:54:15.839Z,26.15
2017-12-04T11:56:45.089Z,19.20
2017-12-04T11:59:14.370Z,23.48
2017-12-04T12:01:43.632Z,21.87
2017-12-04T12:04:12.924Z,21.90
2017-12-04T12:06:42.263Z,23.10
2017-12-04T12:09:11.512Z,21.05
2017-12-04T12:11:41.553Z,23.10
2017-12-04T12:14:10.808Z,27.87
2017-12-04T12:16:40.106Z,32.00
2017-12-04T12:19:09.413Z,26.87
2017-12-04T12:21:39.475Z,27.13
2017-12-04T12:24:08.775Z,22.42
2017-12-04T12:26:38.041Z,26.73
2017-12-04T12:29:07.352Z,20.30
2017-12-04T12:31:37.410Z,35.92
2017-12-04T12:34:06.695Z,26.25
2017-12-04T12:36:35.991Z,21.37
2017-12-04T12:39:05.265Z,19.67
2017-12-04T12:41:34.550Z,23.48
2017-12-04T12:44:03.851Z,21.02
2017-12-04T12:46:33.197Z,24.10
2017-12-04T12:49:02.482Z,24.40
2017-12-04T12:51:31.739Z,23.45
2017-12-04T12:54:00.994Z,25.27
2017-12-04T12:56:30.251Z,21.23
2017-12-04T12:58:59.504Z,22.62
2017-12-04T13:01:28.762Z,30.05
2017-12-04T13:03:58.792Z,24.15
2017-12-04T13:06:28.050Z,26.73
2017-12-04T13:08:57.462Z,24.70
2017-12-04T13:11:26.804Z,25.95
2017-12-04T13:13:56.039Z,23.35
2017-12-04T13:16:25.314Z,27.73
2017-12-04T13:18:54.583Z,20.45
2017-12-04T13:21:24.628Z,19.65
2017-12-04T13:23:53.875Z,21.25
2017-12-04T13:26:23.204Z,21.83
2017-12-04T13:28:52.436Z,24.45
2017-12-04T13:31:23.362Z,24.25
2017-12-04T13:37:20.135Z,16.33
2017-12-04T13:39:49.409Z,16.67
2017-12-04T13:42:19.445Z,12.98
2017-12-04T13:44:48.735Z,10.45
2017-12-04T13:47:18.488Z,9.32
2017-12-04T13:49:47.754Z,12.85
2017-12-04T13:52:17.003Z,12.50
2017-12-04T13:54:46.261Z,11.35
2017-12-04T13:57:16.476Z,18.17
2017-12-04T13:59:45.740Z,9.93
2017-12-04T14:02:15.766Z,10.23
2017-12-04T14:04:45.801Z,13.80
2017-12-04T14:07:15.067Z,7.65
2017-12-04T14:09:44.300Z,9.27
2017-12-04T14:12:13.543Z,11.07
2017-12-04T14:14:42.880Z,9.32
2017-12-04T14:17:13.005Z,10.70
2017-12-04T14:19:43.053Z,11.15
2017-12-04T14:22:12.287Z,15.70
2017-12-04T14:24:41.546Z,7.85
2017-12-04T14:27:10.800Z,5.82
2017-12-04T14:29:40.039Z,6.43
2017-12-04T14:32:09.302Z,8.00
2017-12-04T14:34:38.549Z,11.45
2017-12-04T14:37:07.811Z,9.73
2017-12-04T14:39:37.821Z,6.78
2017-12-04T14:42:07.846Z,9.07
2017-12-04T14:44:37.885Z,6.30
2017-12-04T14:47:07.134Z,6.10
2017-12-04T14:49:36.365Z,5.65
2017-12-04T14:52:06.395Z,6.00
2017-12-04T14:54:35.645Z,8.32
2017-12-04T14:57:04.927Z,7.62
2017-12-04T14:59:34.183Z,7.03
2017-12-04T15:02:04.209Z,6.28
2017-12-04T15:04:33.467Z,6.40
2017-12-04T15:07:02.712Z,8.18
2017-12-04T15:09:31.964Z,5.43
2017-12-04T15:12:01.261Z,9.48
2017-12-04T15:14:30.501Z,7.45
2017-12-04T15:16:59.748Z,5.72
2017-12-04T15:19:29.011Z,7.82
2017-12-04T15:21:58.266Z,10.77
2017-12-04T15:24:27.594Z,9.60
2017-12-04T15:26:56.837Z,5.47
2017-12-04T15:29:26.101Z,5.75
2017-12-04T15:31:55.333Z,5.85
2017-12-04T15:34:24.953Z,10.45
2017-12-04T15:36:54.223Z,5.55
2017-12-04T15:39:23.479Z,9.52
2017-12-04T15:41:53.500Z,7.20
2017-12-04T15:44:22.771Z,9.25
2017-12-04T15:46:52.004Z,5.53
2017-12-04T15:49:22.020Z,6.97
2017-12-04T15:51:51.305Z,8.18
2017-12-04T15:54:21.331Z,7.45
2017-12-04T15:56:51.363Z,7.60
2017-12-04T15:59:21.376Z,6.47
2017-12-04T16:01:50.633Z,6.70
2017-12-04T16:04:19.870Z,5.85
2017-12-04T16:06:49.103Z,9.60
2017-12-04T16:09:18.358Z,7.25
2017-12-04T16:11:47.634Z,6.37
2017-12-04T16:14:17.110Z,7.25
2017-12-04T16:16:46.345Z,6.78
2017-12-04T16:19:15.579Z,9.95
2017-12-04T16:21:44.879Z,10.10
2017-12-04T16:24:14.093Z,9.18
2017-12-04T16:26:43.334Z,6.78
2017-12-04T16:29:12.592Z,6.32
2017-12-04T16:31:41.877Z,6.72
2017-12-04T16:34:11.129Z,6.25
2017-12-04T16:36:40.367Z,6.62
2017-12-04T16:39:09.769Z,7.55
2017-12-04T16:41:39.186Z,7.97
2017-12-04T16:44:08.551Z,7.70
2017-12-04T16:46:37.824Z,9.50
2017-12-04T16:49:07.078Z,8.75
2017-12-04T16:51:36.466Z,9.35
2017-12-04T16:54:05.682Z,8.70
2017-12-04T16:56:34.910Z,8.85
2017-12-04T16:59:04.222Z,11.30
2017-12-04T17:01:33.453Z,13.13
2017-12-04T17:04:03.480Z,10.65
2017-12-04T17:06:32.823Z,8.57
2017-12-04T17:09:02.136Z,11.27
2017-12-04T17:11:31.412Z,9.25
2017-12-04T17:14:00.715Z,13.55
2017-12-04T17:16:30.031Z,13.25
2017-12-04T17:18:59.324Z,8.75
2017-12-04T17:21:28.567Z,12.50
2017-12-04T17:23:59.706Z,8.60
2017-12-04T17:26:29.038Z,10.55
2017-12-04T17:28:58.302Z,15.52
2017-12-04T17:31:27.571Z,16.10
2017-12-04T17:33:56.821Z,11.38
2017-12-04T17:36:26.846Z,20.45
2017-12-04T17:38:56.114Z,21.45
2017-12-04T17:41:25.418Z,17.83
2017-12-04T17:43:55.460Z,14.07
2017-12-04T17:46:26.103Z,12.20
2017-12-04T17:48:55.362Z,13.90
2017-12-04T17:51:24.609Z,11.38
2017-12-04T17:53:53.874Z,11.52
2017-12-04T17:56:23.908Z,14.68
2017-12-04T18:01:28.602Z,12.18
2017-12-04T18:03:57.854Z,11.10
2017-12-04T18:06:27.109Z,11.00
2017-12-04T18:08:56.387Z,14.07
2017-12-04T18:11:25.762Z,18.12
2017-12-04T18:13:55.009Z,14.55
2017-12-04T18:16:24.256Z,14.73
2017-12-04T18:18:53.505Z,18.40
2017-12-04T18:21:23.538Z,14.27
2017-12-04T18:23:52.784Z,17.83
2017-12-04T18:26:22.021Z,14.68
2017-12-04T18:28:52.212Z,18.73
2017-12-04T18:31:21.460Z,16.85
2017-12-04T18:33:51.520Z,13.20
2017-12-04T18:36:20.771Z,15.00
2017-12-04T18:38:50.043Z,11.57
2017-12-04T18:41:20.114Z,13.90
2017-12-04T18:43:49.330Z,16.50
2017-12-04T18:46:18.638Z,14.98
2017-12-04T18:48:47.874Z,15.18
2017-12-04T18:51:17.131Z,15.45
2017-12-04T18:53:46.401Z,14.73
2017-12-04T18:56:15.661Z,21.58
2017-12-04T18:58:44.911Z,18.20
2017-12-04T19:01:14.203Z,13.98
2017-12-04T19:03:44.268Z,12.23
2017-12-04T19:06:13.519Z,14.25
2017-12-04T19:08:42.888Z,16.87
2017-12-04T19:11:13.057Z,14.93
2017-12-04T19:13:43.246Z,12.63
2017-12-04T19:16:13.275Z,14.98
2017-12-04T19:18:42.554Z,15.70
2017-12-04T19:21:11.804Z,19.27
2017-12-04T19:23:41.047Z,15.80
2017-12-04T19:26:10.368Z,16.62
2017-12-04T19:28:40.389Z,18.92
2017-12-04T19:31:10.430Z,15.30
2017-12-04T19:33:40.410Z,20.62
2017-12-04T19:36:10.452Z,17.40
2017-12-04T19:38:39.694Z,18.37
2017-12-04T19:41:08.978Z,18.80
2017-12-04T19:43:38.252Z,14.70
2017-12-04T19:46:07.511Z,17.95
2017-12-04T19:48:36.777Z,17.05
2017-12-04T19:51:06.042Z,17.08
2017-12-04T19:53:35.289Z,12.50
2017-12-04T19:56:04.546Z,14.05
2017-12-04T19:58:34.558Z,19.30
2017-12-04T20:01:03.839Z,22.30
2017-12-04T20:03:33.102Z,13.55
2017-12-04T20:06:02.372Z,15.05
2017-12-04T20:08:31.615Z,14.55
2017-12-04T20:11:00.874Z,13.85
2017-12-04T20:13:30.134Z,18.98
2017-12-04T20:15:59.421Z,16.25
2017-12-04T20:18:28.682Z,15.10
2017-12-04T20:20:57.961Z,24.12
2017-12-04T20:23:27.208Z,15.13
2017-12-04T20:25:56.467Z,19.80
2017-12-04T20:28:25.751Z,14.13
2017-12-04T20:30:55.008Z,11.93
2017-12-04T20:33:24.248Z,13.40
2017-12-04T20:35:53.517Z,19.25
2017-12-04T20:38:22.756Z,15.13
2017-12-04T20:40:52.007Z,15.52
2017-12-04T20:43:21.280Z,16.75
2017-12-04T20:45:50.520Z,13.95
2017-12-04T20:48:20.550Z,12.20
2017-12-04T20:50:50.562Z,21.37
2017-12-04T20:53:20.606Z,21.58
2017-12-04T20:55:49.872Z,16.83
2017-12-04T20:58:19.888Z,17.95
2017-12-04T21:00:49.934Z,21.40
2017-12-04T21:03:19.193Z,14.60
2017-12-04T21:05:48.451Z,13.93
2017-12-04T21:08:35.567Z,15.23
2017-12-04T21:11:22.684Z,19.48
2017-12-04T21:14:09.855Z,16.00
2017-12-04T21:16:57.650Z,17.90
2017-12-04T21:19:26.916Z,20.33
2017-12-04T21:21:56.182Z,18.48
2017-12-04T21:24:25.428Z,14.20
2017-12-04T21:26:54.692Z,16.27
2017-12-04T21:29:23.947Z,14.80
2017-12-04T21:31:53.954Z,14.87
2017-12-04T21:34:23.218Z,21.12
2017-12-04T21:36:53.239Z,15.23
2017-12-04T21:39:22.493Z,16.30
2017-12-04T21:41:51.753Z,15.18
2017-12-04T21:44:21.043Z,17.70
2017-12-04T21:46:50.319Z,17.62
2017-12-04T21:49:19.583Z,19.12
2017-12-04T21:51:48.850Z,16.08
2017-12-04T21:54:18.128Z,15.05
2017-12-04T21:56:48.161Z,15.32
2017-12-04T21:59:17.427Z,13.48
2017-12-04T22:01:47.461Z,16.33
2017-12-04T22:04:17.520Z,14.13
2017-12-04T22:06:46.770Z,17.45
2017-12-04T22:09:16.823Z,17.65
2017-12-04T22:11:46.058Z,15.27
2017-12-04T22:14:15.294Z,10.82
2017-12-04T22:16:45.320Z,14.15
2017-12-04T22:19:14.576Z,14.98
2017-12-04T22:21:43.837Z,15.77
2017-12-04T22:24:13.094Z,15.45
2017-12-04T22:26:43.128Z,15.50
2017-12-04T22:29:12.502Z,16.80
2017-12-04T22:31:41.764Z,15.10
2017-12-04T22:34:11.014Z,17.17
2017-12-04T22:36:41.048Z,15.93
2017-12-04T22:39:10.284Z,15.15
2017-12-04T22:41:39.580Z,15.82
2017-12-04T22:44:08.835Z,16.08
2017-12-04T22:46:38.861Z,16.23
2017-12-04T22:49:08.154Z,17.92
2017-12-04T22:51:38.180Z,15.10
2017-12-04T22:54:07.439Z,16.70
2017-12-04T22:56:36.710Z,18.37
2017-12-04T22:59:05.970Z,20.35
2017-12-04T23:01:36.614Z,14.07
2017-12-04T23:04:05.882Z,13.90
2017-12-04T23:06:35.117Z,16.50
2017-12-04T23:09:04.389Z,19.02
2017-12-04T23:11:34.408Z,19.08
2017-12-04T23:14:04.416Z,18.10
2017-12-04T23:16:34.490Z,15.70
2017-12-04T23:19:03.732Z,18.15
2017-12-04T23:21:33.845Z,21.30
2017-12-04T23:24:03.052Z,17.52
2017-12-04T23:26:33.087Z,16.42
2017-12-04T23:29:02.356Z,14.13
2017-12-04T23:31:31.596Z,13.93
2017-12-04T23:34:00.859Z,11.75
2017-12-04T23:36:30.115Z,19.05
2017-12-04T23:38:59.370Z,13.00
2017-12-04T23:41:29.418Z,15.10
2017-12-04T23:43:58.700Z,11.77
2017-12-04T23:46:27.932Z,15.23
2017-12-04T23:48:57.202Z,15.50
2017-12-04T23:51:26.460Z,12.73
2017-12-04T23:53:55.711Z,17.05
2017-12-04T23:56:24.982Z,14.65
2017-12-04T23:58:55.004Z,16.08
